sensor_id;sensor_type;location;lat;lon;timestamp;pressure;altitude;pressure_sealevel;temperature;humidity
43701;BME280;58809;47.984;7.964;2022-10-17T00:00:32;97703.84;;;12.99;100.00
43701;BME280;58809;47.984;7.964;2022-10-17T00:03:35;97709.72;;;12.94;100.00
43701;BME280;58809;47.984;7.964;2022-10-17T00:06:36;97703.31;;;12.88;100.00
43701;BME280;58809;47.984;7.964;2022-10-17T00:09:41;97704.41;;;12.79;100.00
43701;BME280;58809;47.984;7.964;2022-10-17T00:12:44;97703.47;;;12.72;100.00
43701;BME280;58809;47.984;7.964;2022-10-17T00:15:45;97707.50;;;12.68;100.00
43701;BME280;58809;47.984;7.964;2022-10-17T00:18:46;97714.38;;;12.62;100.00
43701;BME280;58809;47.984;7.964;2022-10-17T00:21:48;97704.94;;;12.60;100.00
43701;BME280;58809;47.984;7.964;2022-10-17T00:24:50;97707.75;;;12.58;100.00
43701;BME280;58809;47.984;7.964;2022-10-17T00:27:51;97710.63;;;12.57;100.00
43701;BME280;58809;47.984;7.964;2022-10-17T00:30:58;97723.44;;;12.53;100.00
43701;BME280;58809;47.984;7.964;2022-10-17T00:34:00;97721.47;;;12.47;100.00
43701;BME280;58809;47.984;7.964;2022-10-17T00:37:02;97715.69;;;12.43;100.00
43701;BME280;58809;47.984;7.964;2022-10-17T00:40:04;97716.91;;;12.41;100.00
43701;BME280;58809;47.984;7.964;2022-10-17T00:43:16;97717.06;;;12.39;100.00
43701;BME280;58809;47.984;7.964;2022-10-17T00:46:19;97714.25;;;12.41;100.00
43701;BME280;58809;47.984;7.964;2022-10-17T00:49:24;97719.38;;;12.42;100.00
43701;BME280;58809;47.984;7.964;2022-10-17T00:52:27;97719.72;;;12.39;100.00
43701;BME280;58809;47.984;7.964;2022-10-17T00:55:34;97723.91;;;12.33;100.00
43701;BME280;58809;47.984;7.964;2022-10-17T00:58:37;97726.47;;;12.27;100.00
43701;BME280;58809;47.984;7.964;2022-10-17T01:01:40;97732.59;;;12.27;100.00
43701;BME280;58809;47.984;7.964;2022-10-17T01:04:46;97732.59;;;12.27;100.00
43701;BME280;58809;47.984;7.964;2022-10-17T01:07:49;97731.75;;;12.27;100.00
43701;BME280;58809;47.984;7.964;2022-10-17T01:11:15;97734.78;;;12.24;100.00
43701;BME280;58809;47.984;7.964;2022-10-17T01:18:05;97740.16;;;12.16;100.00
43701;BME280;58809;47.984;7.964;2022-10-17T01:21:26;97732.75;;;12.11;100.00
43701;BME280;58809;47.984;7.964;2022-10-17T01:27:59;97746.00;;;12.11;100.00
43701;BME280;58809;47.984;7.964;2022-10-17T01:31:11;97734.28;;;12.05;100.00
43701;BME280;58809;47.984;7.964;2022-10-17T01:34:20;97731.84;;;11.96;100.00
43701;BME280;58809;47.984;7.964;2022-10-17T01:37:29;97742.28;;;11.97;100.00
43701;BME280;58809;47.984;7.964;2022-10-17T01:40:55;97741.97;;;11.92;100.00
43701;BME280;58809;47.984;7.964;2022-10-17T01:44:35;97741.81;;;11.93;100.00
43701;BME280;58809;47.984;7.964;2022-10-17T01:47:39;97733.69;;;11.95;100.00
43701;BME280;58809;47.984;7.964;2022-10-17T01:50:51;97738.50;;;11.91;100.00
43701;BME280;58809;47.984;7.964;2022-10-17T01:54:22;97743.31;;;11.88;100.00
43701;BME280;58809;47.984;7.964;2022-10-17T02:00:31;97740.03;;;11.78;100.00
43701;BME280;58809;47.984;7.964;2022-10-17T02:03:33;97731.09;;;11.79;100.00
43701;BME280;58809;47.984;7.964;2022-10-17T02:06:39;97720.31;;;11.80;100.00
43701;BME280;58809;47.984;7.964;2022-10-17T02:09:44;97719.84;;;11.77;100.00
43701;BME280;58809;47.984;7.964;2022-10-17T02:13:01;97727.81;;;11.77;100.00
43701;BME280;58809;47.984;7.964;2022-10-17T02:16:24;97723.66;;;11.74;100.00
43701;BME280;58809;47.984;7.964;2022-10-17T02:19:33;97732.81;;;11.71;100.00
43701;BME280;58809;47.984;7.964;2022-10-17T02:25:53;97729.38;;;11.63;100.00
43701;BME280;58809;47.984;7.964;2022-10-17T02:35:59;97717.94;;;11.62;100.00
43701;BME280;58809;47.984;7.964;2022-10-17T02:39:05;97721.59;;;11.61;100.00
43701;BME280;58809;47.984;7.964;2022-10-17T02:42:10;97722.28;;;11.55;100.00
43701;BME280;58809;47.984;7.964;2022-10-17T02:45:13;97724.28;;;11.53;100.00
43701;BME280;58809;47.984;7.964;2022-10-17T02:48:35;97720.19;;;11.50;100.00
43701;BME280;58809;47.984;7.964;2022-10-17T02:52:09;97717.69;;;11.49;100.00
43701;BME280;58809;47.984;7.964;2022-10-17T02:55:18;97716.84;;;11.48;100.00
43701;BME280;58809;47.984;7.964;2022-10-17T02:58:29;97715.88;;;11.49;100.00
43701;BME280;58809;47.984;7.964;2022-10-17T03:01:34;97713.38;;;11.48;100.00
43701;BME280;58809;47.984;7.964;2022-10-17T03:04:41;97714.56;;;11.45;100.00
43701;BME280;58809;47.984;7.964;2022-10-17T03:07:43;97713.94;;;11.43;100.00
43701;BME280;58809;47.984;7.964;2022-10-17T03:10:45;97724.03;;;11.40;100.00
43701;BME280;58809;47.984;7.964;2022-10-17T03:13:47;97726.03;;;11.38;100.00
43701;BME280;58809;47.984;7.964;2022-10-17T03:16:50;97719.25;;;11.35;100.00
43701;BME280;58809;47.984;7.964;2022-10-17T03:19:52;97729.72;;;11.28;100.00
43701;BME280;58809;47.984;7.964;2022-10-17T03:22:53;97735.38;;;11.25;100.00
43701;BME280;58809;47.984;7.964;2022-10-17T03:25:55;97735.19;;;11.27;100.00
43701;BME280;58809;47.984;7.964;2022-10-17T03:28:57;97735.69;;;11.30;100.00
43701;BME280;58809;47.984;7.964;2022-10-17T03:31:59;97730.22;;;11.32;100.00
43701;BME280;58809;47.984;7.964;2022-10-17T03:35:01;97737.31;;;11.31;100.00
43701;BME280;58809;47.984;7.964;2022-10-17T03:38:03;97747.56;;;11.34;100.00
43701;BME280;58809;47.984;7.964;2022-10-17T03:41:05;97745.09;;;11.33;100.00
43701;BME280;58809;47.984;7.964;2022-10-17T03:44:07;97747.09;;;11.31;100.00
43701;BME280;58809;47.984;7.964;2022-10-17T03:47:08;97750.06;;;11.28;100.00
43701;BME280;58809;47.984;7.964;2022-10-17T03:50:14;97754.56;;;11.27;100.00
43701;BME280;58809;47.984;7.964;2022-10-17T03:53:17;97749.75;;;11.23;100.00
43701;BME280;58809;47.984;7.964;2022-10-17T03:56:21;97752.13;;;11.17;100.00
43701;BME280;58809;47.984;7.964;2022-10-17T03:59:52;97756.09;;;11.13;100.00
43701;BME280;58809;47.984;7.964;2022-10-17T04:02:56;97759.75;;;11.12;100.00
43701;BME280;58809;47.984;7.964;2022-10-17T04:06:00;97755.28;;;11.13;100.00
43701;BME280;58809;47.984;7.964;2022-10-17T04:09:07;97747.50;;;11.11;100.00
43701;BME280;58809;47.984;7.964;2022-10-17T04:12:30;97750.31;;;11.10;100.00
43701;BME280;58809;47.984;7.964;2022-10-17T04:15:35;97753.63;;;11.12;100.00
43701;BME280;58809;47.984;7.964;2022-10-17T04:18:37;97758.09;;;11.11;100.00
43701;BME280;58809;47.984;7.964;2022-10-17T04:21:38;97751.47;;;11.15;100.00
43701;BME280;58809;47.984;7.964;2022-10-17T04:24:41;97766.84;;;11.20;100.00
43701;BME280;58809;47.984;7.964;2022-10-17T04:27:59;97758.88;;;11.20;100.00
43701;BME280;58809;47.984;7.964;2022-10-17T04:31:05;97762.03;;;11.24;100.00
43701;BME280;58809;47.984;7.964;2022-10-17T04:34:15;97761.53;;;11.20;100.00
43701;BME280;58809;47.984;7.964;2022-10-17T04:37:17;97766.50;;;11.23;100.00
43701;BME280;58809;47.984;7.964;2022-10-17T04:40:20;97768.13;;;11.24;100.00
43701;BME280;58809;47.984;7.964;2022-10-17T04:43:24;97770.19;;;11.14;100.00
43701;BME280;58809;47.984;7.964;2022-10-17T04:46:26;97775.81;;;11.11;100.00
43701;BME280;58809;47.984;7.964;2022-10-17T04:49:28;97780.44;;;11.09;100.00
43701;BME280;58809;47.984;7.964;2022-10-17T04:52:37;97770.72;;;11.01;100.00
43701;BME280;58809;47.984;7.964;2022-10-17T04:55:41;97770.72;;;11.01;100.00
43701;BME280;58809;47.984;7.964;2022-10-17T04:58:44;97764.75;;;10.99;100.00
43701;BME280;58809;47.984;7.964;2022-10-17T05:01:47;97770.56;;;10.94;100.00
43701;BME280;58809;47.984;7.964;2022-10-17T05:04:49;97776.00;;;10.93;100.00
43701;BME280;58809;47.984;7.964;2022-10-17T05:07:51;97773.19;;;10.94;100.00
43701;BME280;58809;47.984;7.964;2022-10-17T05:10:55;97781.81;;;10.96;100.00
43701;BME280;58809;47.984;7.964;2022-10-17T05:13:59;97783.63;;;10.96;100.00
43701;BME280;58809;47.984;7.964;2022-10-17T05:17:01;97790.91;;;10.94;100.00
43701;BME280;58809;47.984;7.964;2022-10-17T05:20:04;97794.72;;;10.91;100.00
43701;BME280;58809;47.984;7.964;2022-10-17T05:23:07;97791.09;;;10.84;100.00
43701;BME280;58809;47.984;7.964;2022-10-17T05:26:13;97795.56;;;10.92;100.00
43701;BME280;58809;47.984;7.964;2022-10-17T05:29:15;97789.91;;;10.95;100.00
43701;BME280;58809;47.984;7.964;2022-10-17T05:32:21;97797.84;;;10.95;100.00
43701;BME280;58809;47.984;7.964;2022-10-17T05:35:23;97796.22;;;10.94;100.00
43701;BME280;58809;47.984;7.964;2022-10-17T05:38:26;97795.69;;;10.98;100.00
43701;BME280;58809;47.984;7.964;2022-10-17T05:41:28;97800.50;;;11.03;100.00
43701;BME280;58809;47.984;7.964;2022-10-17T05:44:30;97807.44;;;11.04;100.00
43701;BME280;58809;47.984;7.964;2022-10-17T05:47:33;97803.81;;;11.05;100.00
43701;BME280;58809;47.984;7.964;2022-10-17T05:50:35;97808.59;;;11.02;100.00
43701;BME280;58809;47.984;7.964;2022-10-17T05:53:49;97810.28;;;11.03;100.00
43701;BME280;58809;47.984;7.964;2022-10-17T05:56:56;97814.06;;;11.00;100.00
43701;BME280;58809;47.984;7.964;2022-10-17T06:00:03;97809.09;;;10.97;100.00
43701;BME280;58809;47.984;7.964;2022-10-17T06:03:14;97829.09;;;11.08;100.00
43701;BME280;58809;47.984;7.964;2022-10-17T06:06:18;97831.25;;;11.12;100.00
43701;BME280;58809;47.984;7.964;2022-10-17T06:09:21;97829.94;;;11.16;100.00
43701;BME280;58809;47.984;7.964;2022-10-17T06:12:25;97835.38;;;11.23;100.00
43701;BME280;58809;47.984;7.964;2022-10-17T06:15:28;97836.84;;;11.26;100.00
43701;BME280;58809;47.984;7.964;2022-10-17T06:18:35;97832.03;;;11.29;100.00
43701;BME280;58809;47.984;7.964;2022-10-17T06:21:37;97844.59;;;11.35;100.00
43701;BME280;58809;47.984;7.964;2022-10-17T06:25:00;97854.84;;;11.47;100.00
43701;BME280;58809;47.984;7.964;2022-10-17T06:28:03;97853.19;;;11.54;100.00
43701;BME280;58809;47.984;7.964;2022-10-17T06:31:06;97858.44;;;11.62;100.00
43701;BME280;58809;47.984;7.964;2022-10-17T06:34:09;97861.06;;;11.70;100.00
43701;BME280;58809;47.984;7.964;2022-10-17T06:37:12;97864.66;;;11.78;100.00
43701;BME280;58809;47.984;7.964;2022-10-17T06:40:15;97861.47;;;11.90;100.00
43701;BME280;58809;47.984;7.964;2022-10-17T06:43:19;97872.38;;;12.04;100.00
43701;BME280;58809;47.984;7.964;2022-10-17T06:46:52;97875.75;;;12.21;100.00
43701;BME280;58809;47.984;7.964;2022-10-17T06:49:54;97885.97;;;12.32;100.00
43701;BME280;58809;47.984;7.964;2022-10-17T06:53:04;97882.91;;;12.43;100.00
43701;BME280;58809;47.984;7.964;2022-10-17T06:56:21;97879.97;;;12.61;100.00
43701;BME280;58809;47.984;7.964;2022-10-17T06:59:40;97884.50;;;12.76;100.00
43701;BME280;58809;47.984;7.964;2022-10-17T07:02:45;97884.72;;;12.89;100.00
43701;BME280;58809;47.984;7.964;2022-10-17T07:05:51;97892.47;;;12.99;100.00
43701;BME280;58809;47.984;7.964;2022-10-17T07:08:52;97892.03;;;13.10;100.00
43701;BME280;58809;47.984;7.964;2022-10-17T07:11:56;97904.78;;;13.29;100.00
43701;BME280;58809;47.984;7.964;2022-10-17T07:14:57;97887.72;;;13.47;100.00
43701;BME280;58809;47.984;7.964;2022-10-17T07:17:59;97887.06;;;13.60;100.00
43701;BME280;58809;47.984;7.964;2022-10-17T07:21:01;97893.13;;;13.69;100.00
43701;BME280;58809;47.984;7.964;2022-10-17T07:24:04;97904.94;;;13.81;100.00
43701;BME280;58809;47.984;7.964;2022-10-17T07:27:07;97901.06;;;13.98;100.00
43701;BME280;58809;47.984;7.964;2022-10-17T07:30:10;97899.66;;;14.17;100.00
43701;BME280;58809;47.984;7.964;2022-10-17T07:33:25;97899.25;;;14.35;100.00
43701;BME280;58809;47.984;7.964;2022-10-17T07:36:26;97907.81;;;14.52;100.00
43701;BME280;58809;47.984;7.964;2022-10-17T07:39:29;97908.19;;;14.64;100.00
43701;BME280;58809;47.984;7.964;2022-10-17T07:42:33;97911.44;;;14.81;100.00
43701;BME280;58809;47.984;7.964;2022-10-17T07:45:36;97913.03;;;14.97;100.00
43701;BME280;58809;47.984;7.964;2022-10-17T07:48:38;97916.28;;;15.20;100.00
43701;BME280;58809;47.984;7.964;2022-10-17T07:51:41;97916.19;;;15.35;100.00
43701;BME280;58809;47.984;7.964;2022-10-17T07:54:43;97914.88;;;15.53;100.00
43701;BME280;58809;47.984;7.964;2022-10-17T07:57:52;97920.75;;;15.70;100.00
43701;BME280;58809;47.984;7.964;2022-10-17T08:01:05;97905.81;;;15.75;100.00
43701;BME280;58809;47.984;7.964;2022-10-17T08:04:12;97915.13;;;15.86;100.00
43701;BME280;58809;47.984;7.964;2022-10-17T08:07:16;97914.38;;;15.99;100.00
43701;BME280;58809;47.984;7.964;2022-10-17T08:10:24;97933.09;;;16.12;100.00
43701;BME280;58809;47.984;7.964;2022-10-17T08:13:33;97929.81;;;16.17;100.00
43701;BME280;58809;47.984;7.964;2022-10-17T08:16:39;97935.00;;;16.25;100.00
43701;BME280;58809;47.984;7.964;2022-10-17T08:19:41;97941.81;;;16.34;100.00
43701;BME280;58809;47.984;7.964;2022-10-17T08:22:50;97940.00;;;16.42;100.00
43701;BME280;58809;47.984;7.964;2022-10-17T08:25:52;97933.84;;;16.41;100.00
43701;BME280;58809;47.984;7.964;2022-10-17T08:28:53;97941.06;;;16.54;100.00
43701;BME280;58809;47.984;7.964;2022-10-17T08:31:55;97939.22;;;16.61;100.00
43701;BME280;58809;47.984;7.964;2022-10-17T08:35:02;97944.44;;;16.83;100.00
43701;BME280;58809;47.984;7.964;2022-10-17T08:38:03;97945.72;;;17.00;99.43
43701;BME280;58809;47.984;7.964;2022-10-17T08:41:13;97948.00;;;17.17;98.87
43701;BME280;58809;47.984;7.964;2022-10-17T08:47:51;97946.34;;;17.42;98.06
43701;BME280;58809;47.984;7.964;2022-10-17T08:51:15;97952.50;;;17.56;97.35
43701;BME280;58809;47.984;7.964;2022-10-17T08:54:40;97942.81;;;17.68;95.44
43701;BME280;58809;47.984;7.964;2022-10-17T08:57:50;97955.78;;;17.85;95.31
43701;BME280;58809;47.984;7.964;2022-10-17T09:01:49;97945.44;;;18.02;94.57
43701;BME280;58809;47.984;7.964;2022-10-17T09:18:24;97931.22;;;18.53;90.49
43701;BME280;58809;47.984;7.964;2022-10-17T09:22:17;97945.38;;;18.67;89.47
43701;BME280;58809;47.984;7.964;2022-10-17T09:25:26;97920.94;;;18.50;89.51
43701;BME280;58809;47.984;7.964;2022-10-17T09:28:38;97946.41;;;18.66;90.51
43701;BME280;58809;47.984;7.964;2022-10-17T09:31:46;97932.19;;;18.65;90.50
43701;BME280;58809;47.984;7.964;2022-10-17T09:34:57;97933.13;;;18.84;89.50
43701;BME280;58809;47.984;7.964;2022-10-17T09:38:01;97943.13;;;19.02;88.46
43701;BME280;58809;47.984;7.964;2022-10-17T09:41:30;97950.72;;;19.12;87.82
43701;BME280;58809;47.984;7.964;2022-10-17T09:48:16;97960.06;;;19.53;84.31
43701;BME280;58809;47.984;7.964;2022-10-17T09:51:22;97951.50;;;19.63;83.20
43701;BME280;58809;47.984;7.964;2022-10-17T09:54:35;97952.25;;;19.77;82.32
43701;BME280;58809;47.984;7.964;2022-10-17T10:01:22;97977.25;;;20.14;81.79
43701;BME280;58809;47.984;7.964;2022-10-17T10:04:25;97960.38;;;20.26;79.21
43701;BME280;58809;47.984;7.964;2022-10-17T10:07:38;97978.88;;;20.52;77.55
43701;BME280;58809;47.984;7.964;2022-10-17T10:10:43;97965.22;;;20.54;76.02
43701;BME280;58809;47.984;7.964;2022-10-17T10:13:47;97984.81;;;20.91;72.94
43701;BME280;58809;47.984;7.964;2022-10-17T10:16:50;97979.00;;;21.06;69.92
43701;BME280;58809;47.984;7.964;2022-10-17T10:19:54;97989.00;;;21.18;69.71
43701;BME280;58809;47.984;7.964;2022-10-17T10:23:17;97993.81;;;21.27;67.68
43701;BME280;58809;47.984;7.964;2022-10-17T10:26:23;97993.81;;;21.27;68.02
43701;BME280;58809;47.984;7.964;2022-10-17T10:32:34;97998.22;;;21.52;62.91
43701;BME280;58809;47.984;7.964;2022-10-17T10:35:37;97996.63;;;21.75;60.09
43701;BME280;58809;47.984;7.964;2022-10-17T10:38:39;97999.53;;;21.85;58.48
43701;BME280;58809;47.984;7.964;2022-10-17T10:41:49;98003.06;;;21.97;56.87
43701;BME280;58809;47.984;7.964;2022-10-17T10:44:51;98005.41;;;22.05;56.63
43701;BME280;58809;47.984;7.964;2022-10-17T10:47:56;98019.47;;;22.07;56.33
43701;BME280;58809;47.984;7.964;2022-10-17T10:51:15;98012.53;;;22.11;54.21
43701;BME280;58809;47.984;7.964;2022-10-17T10:54:46;98020.16;;;22.15;54.73
43701;BME280;58809;47.984;7.964;2022-10-17T10:57:53;98016.03;;;22.12;54.45
43701;BME280;58809;47.984;7.964;2022-10-17T11:01:02;98029.28;;;22.14;54.08
43701;BME280;58809;47.984;7.964;2022-10-17T11:04:29;98032.56;;;22.16;52.06
43701;BME280;58809;47.984;7.964;2022-10-17T11:07:37;98036.91;;;22.17;52.65
43701;BME280;58809;47.984;7.964;2022-10-17T11:11:02;98051.66;;;22.14;52.28
43701;BME280;58809;47.984;7.964;2022-10-17T11:14:18;98045.81;;;22.17;52.21
43701;BME280;58809;47.984;7.964;2022-10-17T11:24:14;98032.44;;;22.22;52.51
43701;BME280;58809;47.984;7.964;2022-10-17T11:27:19;98046.91;;;22.28;52.41
43701;BME280;58809;47.984;7.964;2022-10-17T11:30:23;98043.63;;;22.26;52.08
43701;BME280;58809;47.984;7.964;2022-10-17T11:33:44;98033.28;;;22.23;52.13
43701;BME280;58809;47.984;7.964;2022-10-17T11:36:49;98053.91;;;22.29;52.44
43701;BME280;58809;47.984;7.964;2022-10-17T11:39:56;98060.38;;;22.28;52.63
43701;BME280;58809;47.984;7.964;2022-10-17T11:43:34;98049.38;;;22.29;52.55
43701;BME280;58809;47.984;7.964;2022-10-17T11:46:39;98060.84;;;22.37;52.19
43701;BME280;58809;47.984;7.964;2022-10-17T11:49:57;98062.59;;;22.43;51.98
43701;BME280;58809;47.984;7.964;2022-10-17T11:53:23;98060.81;;;22.48;51.98
43701;BME280;58809;47.984;7.964;2022-10-17T11:56:43;98062.94;;;22.46;50.97
43701;BME280;58809;47.984;7.964;2022-10-17T12:09:58;98040.16;;;22.66;52.26
43701;BME280;58809;47.984;7.964;2022-10-17T12:19:39;98035.53;;;22.78;51.24
43701;BME280;58809;47.984;7.964;2022-10-17T12:22:47;98035.78;;;22.77;50.23
43701;BME280;58809;47.984;7.964;2022-10-17T12:25:51;98030.97;;;22.79;50.74
43701;BME280;58809;47.984;7.964;2022-10-17T12:28:56;98016.91;;;22.77;50.13
43701;BME280;58809;47.984;7.964;2022-10-17T12:32:10;98027.97;;;22.92;49.90
43701;BME280;58809;47.984;7.964;2022-10-17T12:35:19;98034.41;;;23.03;49.82
43701;BME280;58809;47.984;7.964;2022-10-17T12:38:26;98026.66;;;23.06;49.87
43701;BME280;58809;47.984;7.964;2022-10-17T12:44:41;98019.94;;;23.09;49.59
43701;BME280;58809;47.984;7.964;2022-10-17T12:47:42;98019.47;;;23.12;49.66
43701;BME280;58809;47.984;7.964;2022-10-17T12:51:08;98024.81;;;23.24;49.10
43701;BME280;58809;47.984;7.964;2022-10-17T12:54:30;98019.06;;;23.20;48.89
43701;BME280;58809;47.984;7.964;2022-10-17T12:58:09;98021.78;;;23.20;49.21
43701;BME280;58809;47.984;7.964;2022-10-17T13:01:17;98027.84;;;23.28;48.87
43701;BME280;58809;47.984;7.964;2022-10-17T13:04:25;98024.81;;;23.24;49.15
43701;BME280;58809;47.984;7.964;2022-10-17T13:07:28;98020.47;;;23.23;48.60
43701;BME280;58809;47.984;7.964;2022-10-17T13:10:33;98019.06;;;23.20;48.43
43701;BME280;58809;47.984;7.964;2022-10-17T13:16:57;98018.44;;;23.30;48.83
43701;BME280;58809;47.984;7.964;2022-10-17T13:19:58;98013.13;;;23.35;48.74
43701;BME280;58809;47.984;7.964;2022-10-17T13:23:00;98013.31;;;23.45;48.93
43701;BME280;58809;47.984;7.964;2022-10-17T13:26:13;98019.69;;;23.39;48.44
43701;BME280;58809;47.984;7.964;2022-10-17T13:29:15;98013.97;;;23.36;48.06
43701;BME280;58809;47.984;7.964;2022-10-17T13:32:17;98012.88;;;23.37;48.42
43701;BME280;58809;47.984;7.964;2022-10-17T13:35:26;98011.81;;;23.38;48.25
43701;BME280;58809;47.984;7.964;2022-10-17T13:38:47;98015.00;;;23.35;47.82
43701;BME280;58809;47.984;7.964;2022-10-17T13:41:51;98008.88;;;23.39;48.05
43701;BME280;58809;47.984;7.964;2022-10-17T13:44:54;98014.13;;;23.46;48.04
43701;BME280;58809;47.984;7.964;2022-10-17T13:48:00;98014.44;;;23.50;48.57
43701;BME280;58809;47.984;7.964;2022-10-17T13:51:04;98007.91;;;23.62;48.63
43701;BME280;58809;47.984;7.964;2022-10-17T13:54:37;98004.00;;;23.70;48.41
43701;BME280;58809;47.984;7.964;2022-10-17T13:57:40;98004.63;;;23.60;48.37
43701;BME280;58809;47.984;7.964;2022-10-17T14:00:43;98013.81;;;23.59;48.73
43701;BME280;58809;47.984;7.964;2022-10-17T14:03:46;98008.22;;;23.49;48.85
43701;BME280;58809;47.984;7.964;2022-10-17T14:06:51;98007.19;;;23.50;49.10
43701;BME280;58809;47.984;7.964;2022-10-17T14:09:53;98005.13;;;23.57;49.10
43701;BME280;58809;47.984;7.964;2022-10-17T14:12:55;97995.53;;;23.50;48.57
43701;BME280;58809;47.984;7.964;2022-10-17T14:15:59;98008.31;;;23.54;47.90
43701;BME280;58809;47.984;7.964;2022-10-17T14:19:02;97999.97;;;23.56;47.81
43701;BME280;58809;47.984;7.964;2022-10-17T14:28:27;97994.47;;;23.85;47.71
43701;BME280;58809;47.984;7.964;2022-10-17T14:31:34;97998.72;;;24.14;47.24
43701;BME280;58809;47.984;7.964;2022-10-17T14:34:38;97997.47;;;25.15;45.21
43701;BME280;58809;47.984;7.964;2022-10-17T14:37:46;98009.69;;;26.15;43.74
43701;BME280;58809;47.984;7.964;2022-10-17T14:40:50;98007.16;;;26.51;42.96
43701;BME280;58809;47.984;7.964;2022-10-17T14:44:01;98010.50;;;25.78;43.97
43701;BME280;58809;47.984;7.964;2022-10-17T14:47:05;98014.09;;;24.97;45.78
43701;BME280;58809;47.984;7.964;2022-10-17T14:50:30;98011.19;;;24.37;46.68
43701;BME280;58809;47.984;7.964;2022-10-17T14:53:32;98007.06;;;24.13;47.29
43701;BME280;58809;47.984;7.964;2022-10-17T14:56:39;98014.78;;;24.04;47.71
43701;BME280;58809;47.984;7.964;2022-10-17T14:59:41;98009.72;;;23.91;48.04
43701;BME280;58809;47.984;7.964;2022-10-17T15:02:54;98009.88;;;23.84;48.30
43701;BME280;58809;47.984;7.964;2022-10-17T15:05:56;98011.34;;;23.75;48.56
43701;BME280;58809;47.984;7.964;2022-10-17T15:08:59;98017.16;;;23.67;48.93
43701;BME280;58809;47.984;7.964;2022-10-17T15:12:01;98015.03;;;23.69;49.58
43701;BME280;58809;47.984;7.964;2022-10-17T15:15:04;98018.06;;;23.72;50.13
43701;BME280;58809;47.984;7.964;2022-10-17T15:18:09;98007.91;;;23.62;50.36
43701;BME280;58809;47.984;7.964;2022-10-17T15:21:12;98008.81;;;23.51;50.57
43701;BME280;58809;47.984;7.964;2022-10-17T15:24:34;98013.06;;;23.47;50.80
43701;BME280;58809;47.984;7.964;2022-10-17T15:27:35;98011.06;;;23.42;51.41
43701;BME280;58809;47.984;7.964;2022-10-17T15:30:51;98006.34;;;23.33;51.67
43701;BME280;58809;47.984;7.964;2022-10-17T15:33:54;98008.56;;;23.36;51.73
43701;BME280;58809;47.984;7.964;2022-10-17T15:36:56;98007.97;;;23.34;51.86
43701;BME280;58809;47.984;7.964;2022-10-17T15:39:59;98016.75;;;23.41;52.42
43701;BME280;58809;47.984;7.964;2022-10-17T15:43:00;98017.31;;;23.60;52.77
43701;BME280;58809;47.984;7.964;2022-10-17T15:46:02;98015.69;;;23.76;53.48
43701;BME280;58809;47.984;7.964;2022-10-17T15:49:05;98019.91;;;23.21;54.83
43701;BME280;58809;47.984;7.964;2022-10-17T15:52:10;98009.78;;;22.59;56.62
43701;BME280;58809;47.984;7.964;2022-10-17T15:55:12;98018.16;;;22.22;59.03
43701;BME280;58809;47.984;7.964;2022-10-17T15:58:17;98011.59;;;21.82;61.49
43701;BME280;58809;47.984;7.964;2022-10-17T16:01:24;98029.63;;;21.58;63.23
43701;BME280;58809;47.984;7.964;2022-10-17T16:04:26;98031.06;;;21.30;65.86
43701;BME280;58809;47.984;7.964;2022-10-17T16:07:29;98023.34;;;21.04;67.77
43701;BME280;58809;47.984;7.964;2022-10-17T16:10:31;98031.75;;;20.77;68.32
43701;BME280;58809;47.984;7.964;2022-10-17T16:13:33;98040.72;;;20.52;69.24
43701;BME280;58809;47.984;7.964;2022-10-17T16:16:38;98032.50;;;20.29;70.50
43701;BME280;58809;47.984;7.964;2022-10-17T16:19:44;98035.56;;;20.14;71.19
43701;BME280;58809;47.984;7.964;2022-10-17T16:22:47;98044.03;;;19.92;72.87
43701;BME280;58809;47.984;7.964;2022-10-17T16:25:48;98032.25;;;19.61;74.41
43701;BME280;58809;47.984;7.964;2022-10-17T16:28:50;98040.47;;;19.41;75.67
43701;BME280;58809;47.984;7.964;2022-10-17T16:31:52;98049.69;;;19.20;77.27
43701;BME280;58809;47.984;7.964;2022-10-17T16:34:53;98052.25;;;19.09;78.04
43701;BME280;58809;47.984;7.964;2022-10-17T16:37:55;98041.84;;;18.87;79.35
43701;BME280;58809;47.984;7.964;2022-10-17T16:40:58;98046.19;;;18.68;81.12
43701;BME280;58809;47.984;7.964;2022-10-17T16:44:02;98043.78;;;18.53;82.27
43701;BME280;58809;47.984;7.964;2022-10-17T16:47:04;98050.22;;;18.39;83.05
43701;BME280;58809;47.984;7.964;2022-10-17T16:50:06;98054.38;;;18.28;83.65
43701;BME280;58809;47.984;7.964;2022-10-17T16:53:07;98053.78;;;18.19;84.17
43701;BME280;58809;47.984;7.964;2022-10-17T16:56:11;98060.78;;;18.07;85.02
43701;BME280;58809;47.984;7.964;2022-10-17T16:59:13;98066.59;;;17.97;85.79
43701;BME280;58809;47.984;7.964;2022-10-17T17:02:14;98067.81;;;17.88;87.04
43701;BME280;58809;47.984;7.964;2022-10-17T17:05:21;98073.53;;;17.78;87.29
43701;BME280;58809;47.984;7.964;2022-10-17T17:08:23;98078.50;;;17.68;87.69
43701;BME280;58809;47.984;7.964;2022-10-17T17:11:26;98087.13;;;17.57;88.34
43701;BME280;58809;47.984;7.964;2022-10-17T17:14:27;98091.66;;;17.49;88.79
43701;BME280;58809;47.984;7.964;2022-10-17T17:17:29;98083.38;;;17.24;89.91
43701;BME280;58809;47.984;7.964;2022-10-17T17:20:49;98104.97;;;17.23;90.62
43701;BME280;58809;47.984;7.964;2022-10-17T17:23:51;98100.22;;;17.18;90.69
43701;BME280;58809;47.984;7.964;2022-10-17T17:26:54;98102.66;;;17.06;90.85
43701;BME280;58809;47.984;7.964;2022-10-17T17:29:55;98104.66;;;16.91;91.87
43701;BME280;58809;47.984;7.964;2022-10-17T17:32:57;98112.44;;;16.86;93.12
43701;BME280;58809;47.984;7.964;2022-10-17T17:36:00;98120.19;;;16.81;93.45
43701;BME280;58809;47.984;7.964;2022-10-17T17:39:05;98113.56;;;16.70;93.50
43701;BME280;58809;47.984;7.964;2022-10-17T17:42:07;98124.00;;;16.58;94.32
43701;BME280;58809;47.984;7.964;2022-10-17T17:45:12;98115.50;;;16.48;94.73
43701;BME280;58809;47.984;7.964;2022-10-17T17:48:40;98108.84;;;16.30;95.51